Time;durP1;ratioP1;P1;durP2;ratioP2;P2;SDS_P1;SDS_P2;PMS_P1;PMS_P2;Temp;Humidity;BMP_temperature;BMP_pressure;BME280_temperature;BME280_humidity;BME280_pressure;Samples;Min_cycle;Max_cycle;Signal;HPM_P1;HPM_P2
2022/04/22 00:00:30;;;;;;;7.93;6.78;;;;;;;-148.33;100.00;56587.81;5049384;28;20093;-59
2022/04/22 00:02:55;;;;;;;6.28;5.72;;;;;;;-148.33;100.00;56587.81;5049220;28;20013;-57
2022/04/22 00:05:21;;;;;;;6.53;5.85;;;;;;;-148.33;100.00;56587.81;5049302;28;20060;-59
2022/04/22 00:07:46;;;;;;;7.90;6.25;;;;;;;-148.33;100.00;56587.81;5049478;28;20495;-59
2022/04/22 00:10:11;;;;;;;8.60;6.40;;;;;;;-148.33;100.00;56587.81;5048360;28;20025;-58
2022/04/22 00:12:38;;;;;;;7.72;6.65;;;;;;;-148.33;100.00;56587.81;5048796;28;20025;-57
2022/04/22 00:15:04;;;;;;;8.75;6.70;;;;;;;-148.33;100.00;56587.81;5047810;28;20043;-58
2022/04/22 00:17:29;;;;;;;7.40;6.60;;;;;;;-148.33;100.00;56587.81;5048805;28;20571;-59
2022/04/22 00:19:55;;;;;;;8.35;6.63;;;;;;;-148.33;100.00;56587.81;5048625;28;20103;-58
2022/04/22 00:22:20;;;;;;;7.30;6.60;;;;;;;-148.33;100.00;56587.81;5049116;28;20389;-57
2022/04/22 00:24:45;;;;;;;7.07;6.35;;;;;;;-148.33;100.00;56587.81;5048793;28;20028;-59
2022/04/22 00:27:11;;;;;;;11.07;7.43;;;;;;;-148.33;100.00;56587.81;5049212;28;20029;-58
2022/04/22 00:29:36;;;;;;;7.15;6.55;;;;;;;-148.33;100.00;56587.81;5048178;28;20036;-59
2022/04/22 00:32:01;;;;;;;9.07;7.18;;;;;;;-148.33;100.00;56587.81;5048658;28;20033;-58
2022/04/22 00:34:26;;;;;;;9.30;6.75;;;;;;;-148.33;100.00;56587.81;5047738;28;20044;-58
2022/04/22 00:36:52;;;;;;;9.77;6.97;;;;;;;-148.33;100.00;56587.81;5048603;28;20032;-59
2022/04/22 00:39:17;;;;;;;9.15;7.40;;;;;;;-148.33;100.00;56587.81;5048530;28;20122;-58
2022/04/22 00:41:43;;;;;;;8.43;7.60;;;;;;;-148.33;100.00;56587.81;5048623;28;20591;-58
2022/04/22 00:44:08;;;;;;;8.38;7.05;;;;;;;-148.33;100.00;56587.81;5048057;28;20021;-58
2022/04/22 00:46:34;;;;;;;8.32;7.00;;;;;;;-148.33;100.00;56587.81;5048641;28;20021;-58
2022/04/22 00:48:59;;;;;;;6.93;6.20;;;;;;;-148.33;100.00;56587.81;5048707;28;20055;-57
2022/04/22 00:51:24;;;;;;;7.80;7.03;;;;;;;-148.33;100.00;56587.81;5048738;28;20021;-57
2022/04/22 00:53:52;;;;;;;11.55;7.35;;;;;;;-148.33;100.00;56587.81;5048363;28;20050;-57
2022/04/22 00:56:18;;;;;;;7.80;7.10;;;;;;;-148.33;100.00;56587.81;5047858;28;20070;-57
2022/04/22 00:58:47;;;;;;;8.80;6.85;;;;;;;-148.33;100.00;56587.81;5048462;28;20017;-58
2022/04/22 01:01:13;;;;;;;7.93;7.07;;;;;;;-148.33;100.00;56587.81;5048147;28;20510;-58
2022/04/22 01:03:39;;;;;;;8.07;7.28;;;;;;;-148.33;100.00;56587.81;5047376;28;20136;-58
2022/04/22 01:11:36;;;;;;;10.60;7.05;;;;;;;-148.33;100.00;56587.81;5047521;28;20090;-56
2022/04/22 01:14:04;;;;;;;8.57;7.10;;;;;;;-148.33;100.00;56587.81;5048384;28;20122;-57
2022/04/22 01:16:29;;;;;;;9.45;7.40;;;;;;;-148.33;100.00;56587.81;5048099;28;20055;-59
2022/04/22 01:18:55;;;;;;;8.63;7.72;;;;;;;-148.33;100.00;56587.81;5047798;28;20052;-59
2022/04/22 01:21:20;;;;;;;8.57;6.80;;;;;;;-148.33;100.00;56587.81;5047401;28;20083;-58
2022/04/22 01:23:45;;;;;;;8.45;7.30;;;;;;;-148.33;100.00;56587.81;5047954;28;20071;-57
2022/04/22 01:26:13;;;;;;;9.73;7.43;;;;;;;-148.33;100.00;56587.81;5047741;28;20040;-58
2022/04/22 01:28:38;;;;;;;9.25;7.68;;;;;;;-148.33;100.00;56587.81;5048186;28;20040;-57
2022/04/22 01:31:04;;;;;;;8.38;7.22;;;;;;;-148.33;100.00;56587.81;5047737;28;20033;-59
2022/04/22 01:33:29;;;;;;;9.10;8.20;;;;;;;-148.33;100.00;56587.81;5046134;28;20087;-56
2022/04/22 01:35:55;;;;;;;10.40;8.05;;;;;;;-148.33;100.00;56587.81;5047109;28;20389;-56
2022/04/22 01:38:20;;;;;;;9.57;8.63;;;;;;;-148.33;100.00;56587.81;5047609;28;20332;-59
2022/04/22 01:40:45;;;;;;;9.15;8.20;;;;;;;-148.33;100.00;56587.81;5047595;28;20082;-58
2022/04/22 01:43:11;;;;;;;8.65;7.85;;;;;;;-148.33;100.00;56587.81;5047623;28;20386;-58
2022/04/22 01:45:36;;;;;;;9.10;7.97;;;;;;;-148.33;100.00;56587.81;5047500;28;20027;-57
2022/04/22 01:48:02;;;;;;;9.30;8.30;;;;;;;-148.33;100.00;56587.81;5051484;28;20064;-58
2022/04/22 01:50:27;;;;;;;10.45;9.02;;;;;;;-148.33;100.00;56587.81;5051169;28;20031;-58
2022/04/22 01:52:53;;;;;;;9.77;8.80;;;;;;;-148.33;100.00;56587.81;5050510;28;20064;-58
2022/04/22 01:55:19;;;;;;;9.82;8.48;;;;;;;-148.33;100.00;56587.81;5051851;28;20086;-58
2022/04/22 01:57:45;;;;;;;9.77;8.77;;;;;;;-148.33;100.00;56587.81;5051486;28;20024;-58
2022/04/22 02:00:11;;;;;;;10.05;8.80;;;;;;;-148.33;100.00;56587.81;5051706;28;20031;-56
2022/04/22 02:02:36;;;;;;;9.88;9.00;;;;;;;-148.33;100.00;56587.81;5051721;28;20108;-59
2022/04/22 02:05:03;;;;;;;9.32;8.40;;;;;;;-148.33;100.00;56587.81;5051602;28;20182;-58
2022/04/22 02:07:28;;;;;;;9.38;8.52;;;;;;;-148.33;100.00;56587.81;5050653;28;20028;-58
2022/04/22 02:09:53;;;;;;;9.55;8.65;;;;;;;-148.33;100.00;56587.81;5051671;28;20031;-57
2022/04/22 02:12:19;;;;;;;9.60;8.43;;;;;;;-148.33;100.00;56587.81;5051458;28;20032;-58
2022/04/22 02:14:44;;;;;;;9.52;8.48;;;;;;;-148.33;100.00;56587.81;5051487;28;20028;-58
2022/04/22 02:17:09;;;;;;;9.48;8.38;;;;;;;-148.33;100.00;56587.81;5051286;28;20025;-57
2022/04/22 02:19:35;;;;;;;10.10;9.00;;;;;;;-148.33;100.00;56587.81;5050751;28;20449;-57
2022/04/22 02:22:00;;;;;;;9.85;8.88;;;;;;;-148.33;100.00;56587.81;5051020;28;20594;-56
2022/04/22 02:24:26;;;;;;;9.32;8.38;;;;;;;-148.33;100.00;56587.81;5051161;28;20070;-57
2022/04/22 02:29:37;;;;;;;10.35;8.80;;;;;;;-148.33;100.00;56587.81;5051203;28;20124;-58
2022/04/22 02:32:03;;;;;;;12.52;9.40;;;;;;;-148.33;100.00;56587.81;5050224;28;20017;-57
2022/04/22 02:34:28;;;;;;;9.73;8.77;;;;;;;-148.33;100.00;56587.81;5050721;28;20563;-58
2022/04/22 02:36:53;;;;;;;10.13;9.13;;;;;;;-148.33;100.00;56587.81;5050632;28;20112;-58
2022/04/22 02:39:19;;;;;;;10.60;9.32;;;;;;;-148.33;100.00;56587.81;5050001;28;20381;-58
2022/04/22 02:47:13;;;;;;;11.15;9.30;;;;;;;-148.33;100.00;56587.81;5050975;28;20045;-58
2022/04/22 02:49:43;;;;;;;10.95;9.55;;;;;;;-148.33;100.00;56587.81;5051016;28;20398;-59
2022/04/22 02:52:08;;;;;;;10.95;9.63;;;;;;;-148.33;100.00;56587.81;5050985;28;20461;-58
2022/04/22 02:54:34;;;;;;;11.23;10.23;;;;;;;-148.33;100.00;56587.81;5050414;28;20028;-57
2022/04/22 02:57:00;;;;;;;11.55;9.73;;;;;;;-148.33;100.00;56587.81;5049458;28;20060;-57
2022/04/22 02:59:28;;;;;;;10.77;9.77;;;;;;;-148.33;100.00;56587.81;5050506;28;20028;-58
2022/04/22 03:01:54;;;;;;;11.07;9.63;;;;;;;-148.33;100.00;56587.81;5050269;28;20021;-58
2022/04/22 03:04:19;;;;;;;10.65;9.57;;;;;;;-148.33;100.00;56587.81;5050292;28;20025;-57
2022/04/22 03:06:45;;;;;;;10.75;9.65;;;;;;;-148.33;100.00;56587.81;5050263;28;20025;-57
2022/04/22 03:09:10;;;;;;;11.57;10.23;;;;;;;-148.33;100.00;56587.81;5050474;28;20033;-56
2022/04/22 03:11:35;;;;;;;11.30;10.20;;;;;;;-148.33;100.00;56587.81;5049860;28;20032;-57
2022/04/22 03:14:03;;;;;;;10.32;9.23;;;;;;;-148.33;100.00;56587.81;5050664;28;20017;-57
2022/04/22 03:16:28;;;;;;;12.15;10.75;;;;;;;-148.33;100.00;56587.81;5050152;28;20067;-57
2022/04/22 03:18:54;;;;;;;11.38;10.18;;;;;;;-148.33;100.00;56587.81;5049974;28;20056;-58
2022/04/22 03:21:19;;;;;;;12.63;10.40;;;;;;;-148.33;100.00;56587.81;5049600;28;20033;-58
2022/04/22 03:23:45;;;;;;;11.80;9.90;;;;;;;-148.33;100.00;56587.81;5050103;28;20504;-58
2022/04/22 03:26:11;;;;;;;11.10;10.07;;;;;;;-148.33;100.00;56587.81;5049814;28;20033;-57
2022/04/22 03:28:37;;;;;;;11.77;10.60;;;;;;;-148.33;100.00;56587.81;5050000;28;20083;-57
2022/04/22 03:31:02;;;;;;;12.73;11.52;;;;;;;-148.33;100.00;56587.81;5050068;28;20028;-57
2022/04/22 03:33:27;;;;;;;11.98;10.77;;;;;;;-148.33;100.00;56587.81;5049031;28;20049;-58
2022/04/22 03:35:53;;;;;;;12.52;11.30;;;;;;;-148.33;100.00;56587.81;5049704;28;20544;-58
2022/04/22 03:38:20;;;;;;;12.32;11.23;;;;;;;-148.33;100.00;56587.81;5049849;28;20120;-58
2022/04/22 03:40:46;;;;;;;13.35;12.05;;;;;;;-148.33;100.00;56587.81;5049702;28;20029;-57
2022/04/22 03:43:11;;;;;;;12.63;11.23;;;;;;;-148.33;100.00;56587.81;5049406;28;20032;-58
2022/04/22 03:45:38;;;;;;;14.10;12.50;;;;;;;-148.33;100.00;56587.81;5049164;28;20033;-57
2022/04/22 03:48:08;;;;;;;12.77;11.40;;;;;;;-148.33;100.00;56587.81;5049316;28;20024;-58
2022/04/22 03:50:33;;;;;;;12.95;11.73;;;;;;;-148.33;100.00;56587.81;5049380;28;20488;-58
2022/04/22 03:52:59;;;;;;;13.20;12.05;;;;;;;-148.33;100.00;56587.81;5049523;28;20091;-58
2022/04/22 03:55:24;;;;;;;13.38;12.07;;;;;;;-148.33;100.00;56587.81;5049184;28;20028;-57
2022/04/22 04:00:33;;;;;;;14.57;13.07;;;;;;;-148.33;100.00;56587.81;5049614;28;20048;-58
2022/04/22 04:02:58;;;;;;;13.48;12.13;;;;;;;-148.33;100.00;56587.81;5049050;28;20033;-57
2022/04/22 04:05:24;;;;;;;16.55;12.90;;;;;;;-148.33;100.00;56587.81;5048729;28;20025;-56
2022/04/22 04:07:49;;;;;;;13.82;12.43;;;;;;;-148.33;100.00;56587.81;5049075;28;20478;-57
2022/04/22 04:15:57;;;;;;;14.30;12.57;;;;;;;-148.33;100.00;56587.81;5049100;28;20043;-57
2022/04/22 04:18:23;;;;;;;14.00;12.70;;;;;;;-148.33;100.00;56587.81;5047326;28;20028;-57
2022/04/22 04:23:32;;;;;;;14.60;13.10;;;;;;;-148.33;100.00;56587.81;5046754;28;20098;-58
2022/04/22 04:25:59;;;;;;;14.82;13.32;;;;;;;-148.33;100.00;56587.81;5046779;28;20268;-56
2022/04/22 04:28:27;;;;;;;13.90;12.50;;;;;;;-148.33;100.00;56587.81;5047203;28;20044;-57
2022/04/22 04:30:53;;;;;;;15.55;12.80;;;;;;;-148.33;100.00;56587.81;5047991;28;20040;-58
2022/04/22 04:33:19;;;;;;;13.63;12.25;;;;;;;-148.33;100.00;56587.81;5048062;28;20049;-58
2022/04/22 04:35:46;;;;;;;15.55;13.45;;;;;;;-148.33;100.00;56587.81;5048523;28;20086;-57
2022/04/22 04:38:12;;;;;;;16.65;12.98;;;;;;;-148.33;100.00;56587.81;5047718;28;20036;-56
2022/04/22 04:40:37;;;;;;;15.60;14.00;;;;;;;-148.33;100.00;56587.81;5048601;28;20048;-58
2022/04/22 04:43:05;;;;;;;14.80;13.45;;;;;;;-148.33;100.00;56587.81;5048566;28;20025;-58
2022/04/22 04:45:31;;;;;;;15.98;14.32;;;;;;;-148.33;100.00;56587.81;5048256;28;20116;-56
2022/04/22 04:47:56;;;;;;;14.80;13.30;;;;;;;-148.33;100.00;56587.81;5048377;28;20115;-57
2022/04/22 04:50:21;;;;;;;16.05;13.55;;;;;;;-148.33;100.00;56587.81;5048159;28;20049;-58
2022/04/22 04:52:47;;;;;;;17.08;14.43;;;;;;;-148.33;100.00;56587.81;5047467;28;20504;-57
2022/04/22 04:55:15;;;;;;;15.23;13.77;;;;;;;-148.33;100.00;56587.81;5047399;28;20032;-58
2022/04/22 04:57:44;;;;;;;14.63;13.13;;;;;;;-148.33;100.00;56587.81;5048005;28;20028;-56
2022/04/22 05:00:10;;;;;;;15.60;14.10;;;;;;;-148.33;100.00;56587.81;5047512;28;20086;-57
2022/04/22 05:02:36;;;;;;;16.52;13.73;;;;;;;-148.33;100.00;56587.81;5047911;28;20037;-57
2022/04/22 05:05:05;;;;;;;16.98;15.18;;;;;;;-148.33;100.00;56587.81;5047748;28;20059;-56
2022/04/22 05:07:30;;;;;;;16.40;14.75;;;;;;;-148.33;100.00;56587.81;5048288;28;20464;-58
2022/04/22 05:09:56;;;;;;;17.40;14.70;;;;;;;-148.33;100.00;56587.81;5048184;28;20036;-56
2022/04/22 05:12:21;;;;;;;15.48;13.98;;;;;;;-148.33;100.00;56587.81;5047475;28;20040;-56
2022/04/22 05:14:46;;;;;;;14.98;13.63;;;;;;;-148.33;100.00;56587.81;5047934;28;20079;-58
2022/04/22 05:17:12;;;;;;;15.90;14.32;;;;;;;-148.33;100.00;56587.81;5047577;28;20029;-58
2022/04/22 05:19:37;;;;;;;16.20;14.45;;;;;;;-148.33;100.00;56587.81;5044225;28;20037;-58
2022/04/22 05:22:03;;;;;;;16.23;14.52;;;;;;;-148.33;100.00;56587.81;5046004;28;20538;-58
2022/04/22 05:24:30;;;;;;;17.00;15.25;;;;;;;-148.33;100.00;56587.81;5046880;28;20025;-57
2022/04/22 05:26:56;;;;;;;16.85;15.15;;;;;;;-148.33;100.00;56587.81;5043655;28;20031;-58
2022/04/22 05:34:49;;;;;;;16.58;13.85;;;;;;;-148.33;100.00;56587.81;5046743;28;20527;-56
2022/04/22 05:37:14;;;;;;;18.60;14.18;;;;;;;-148.33;100.00;56587.81;5045055;28;20354;-58
2022/04/22 05:39:43;;;;;;;17.05;15.40;;;;;;;-148.33;100.00;56587.81;5046127;28;20025;-58
2022/04/22 05:42:08;;;;;;;16.42;14.73;;;;;;;-148.33;100.00;56587.81;5046068;28;20020;-58
2022/04/22 05:44:34;;;;;;;17.73;16.02;;;;;;;-148.33;100.00;56587.81;5046868;28;20048;-57
2022/04/22 05:46:59;;;;;;;17.20;15.48;;;;;;;-148.33;100.00;56587.81;5043866;28;20063;-59
2022/04/22 05:49:24;;;;;;;17.75;15.90;;;;;;;-148.33;100.00;56587.81;5043660;28;20025;-58
2022/04/22 05:51:49;;;;;;;17.00;15.27;;;;;;;-148.33;100.00;56587.81;5030002;28;20055;-56
2022/04/22 05:54:15;;;;;;;20.05;15.80;;;;;;;-148.33;100.00;56587.81;5028089;28;20401;-58
2022/04/22 05:56:40;;;;;;;17.95;16.23;;;;;;;-148.33;100.00;56587.81;5029357;28;20235;-57
2022/04/22 05:59:05;;;;;;;18.92;16.08;;;;;;;-148.33;100.00;56587.81;5047387;28;20025;-57
2022/04/22 06:01:31;;;;;;;16.95;15.27;;;;;;;-148.33;100.00;56587.81;5046589;28;20033;-58
2022/04/22 06:03:56;;;;;;;17.60;15.80;;;;;;;-148.33;100.00;56587.81;5039836;28;20254;-58
2022/04/22 06:06:21;;;;;;;17.85;16.25;;;;;;;-148.33;100.00;56587.81;5046676;28;20112;-59
2022/04/22 06:11:32;;;;;;;18.02;16.23;;;;;;;-148.33;100.00;56587.81;5044168;28;20412;-57
2022/04/22 06:13:57;;;;;;;19.70;17.80;;;;;;;-148.33;100.00;56587.81;5038158;28;20029;-58
2022/04/22 06:16:22;;;;;;;19.30;17.33;;;;;;;-148.33;100.00;56587.81;5043756;28;20346;-55
2022/04/22 06:18:48;;;;;;;19.70;17.58;;;;;;;-148.33;100.00;56587.81;5044050;28;20116;-57
2022/04/22 06:21:13;;;;;;;19.85;17.98;;;;;;;-148.33;100.00;56587.81;5043411;28;20477;-57
2022/04/22 06:23:38;;;;;;;19.75;17.85;;;;;;;-148.33;100.00;56587.81;5042420;28;20022;-58
2022/04/22 06:26:04;;;;;;;19.23;17.50;;;;;;;-148.33;100.00;56587.81;5046120;28;20032;-56
2022/04/22 06:28:29;;;;;;;19.95;18.05;;;;;;;-148.33;100.00;56587.81;5044059;28;20680;-59
2022/04/22 06:30:54;;;;;;;20.13;18.10;;;;;;;-148.33;100.00;56587.81;5040125;28;20032;-57
2022/04/22 06:33:20;;;;;;;19.00;17.15;;;;;;;-148.33;100.00;56587.81;5049344;28;20811;-57
2022/04/22 06:35:45;;;;;;;19.05;17.27;;;;;;;-148.33;100.00;56587.81;5046029;28;20074;-57
2022/04/22 06:38:15;;;;;;;19.40;17.50;;;;;;;-148.33;100.00;56587.81;5045373;28;20021;-59
2022/04/22 06:46:09;;;;;;;18.58;16.92;;;;;;;-148.33;100.00;56587.81;5046367;28;20079;-59
2022/04/22 06:48:35;;;;;;;19.30;17.38;;;;;;;-148.33;100.00;56587.81;5046608;28;20021;-57
2022/04/22 06:51:02;;;;;;;19.45;17.52;;;;;;;-148.33;100.00;56587.81;5049255;28;20021;-58
2022/04/22 06:53:28;;;;;;;19.85;17.85;;;;;;;-148.33;100.00;56587.81;5043158;28;20461;-59
2022/04/22 06:55:58;;;;;;;18.58;16.80;;;;;;;-148.33;100.00;56587.81;5047364;28;20020;-58
2022/04/22 06:58:26;;;;;;;19.40;17.50;;;;;;;-148.33;100.00;56587.81;5045347;28;20098;-57
2022/04/22 07:00:51;;;;;;;18.02;16.40;;;;;;;-148.33;100.00;56587.81;5049397;28;20032;-59
2022/04/22 07:03:17;;;;;;;17.95;16.25;;;;;;;-148.33;100.00;56587.81;5046338;28;20051;-59
2022/04/22 07:05:45;;;;;;;19.38;17.38;;;;;;;-148.33;100.00;56587.81;5048513;28;20031;-60
2022/04/22 07:08:14;;;;;;;19.08;17.25;;;;;;;-148.33;100.00;56587.81;5048528;28;20036;-59
2022/04/22 07:10:41;;;;;;;18.15;16.45;;;;;;;-148.33;100.00;56587.81;5048598;28;20032;-58
2022/04/22 07:13:07;;;;;;;18.20;16.40;;;;;;;-148.33;100.00;56587.81;5041190;28;20043;-58
2022/04/22 07:15:33;;;;;;;18.98;17.20;;;;;;;-148.33;100.00;56587.81;5043039;28;20052;-57
2022/04/22 07:17:58;;;;;;;18.17;16.45;;;;;;;-148.33;100.00;56587.81;5048989;28;20099;-56
2022/04/22 07:20:24;;;;;;;18.50;16.70;;;;;;;-148.33;100.00;56587.81;5044691;28;20029;-58
2022/04/22 07:22:50;;;;;;;18.95;17.10;;;;;;;-148.33;100.00;56587.81;5048254;28;20028;-58
2022/04/22 07:25:16;;;;;;;18.33;16.63;;;;;;;-148.33;100.00;56587.81;5043544;28;20091;-57
2022/04/22 07:27:43;;;;;;;18.67;16.90;;;;;;;-148.33;100.00;56587.81;5048878;28;20041;-58
2022/04/22 07:30:11;;;;;;;18.25;16.50;;;;;;;-148.33;100.00;56587.81;5049674;28;20029;-57
2022/04/22 07:32:41;;;;;;;17.63;16.05;;;;;;;-148.33;100.00;56587.81;5049550;28;20053;-58
2022/04/22 07:35:13;;;;;;;17.85;16.20;;;;;;;-148.33;100.00;56587.81;5048685;28;20423;-58
2022/04/22 07:37:39;;;;;;;16.98;15.38;;;;;;;-148.33;100.00;56587.81;5049437;28;20428;-58
2022/04/22 07:40:06;;;;;;;17.15;15.35;;;;;;;-148.33;100.00;56587.81;5048547;28;20024;-57
2022/04/22 07:42:33;;;;;;;17.60;16.10;;;;;;;-148.33;100.00;56587.81;5044562;28;20503;-58
2022/04/22 07:48:02;;;;;;;16.95;15.40;;;;;;;-148.33;100.00;56587.81;5006225;28;20098;-58
2022/04/22 07:50:27;;;;;;;17.08;15.48;;;;;;;-148.33;100.00;56587.81;5036929;28;20033;-58
2022/04/22 07:52:52;;;;;;;16.95;15.55;;;;;;;-148.33;100.00;56587.81;5049092;28;20017;-59
2022/04/22 07:55:18;;;;;;;16.90;15.40;;;;;;;-148.33;100.00;56587.81;5048432;28;20427;-59
2022/04/22 07:57:43;;;;;;;16.60;15.10;;;;;;;-148.33;100.00;56587.81;5048689;28;20021;-58
2022/04/22 08:00:10;;;;;;;17.02;15.43;;;;;;;-148.33;100.00;56587.81;5048385;28;20203;-58
2022/04/22 08:02:40;;;;;;;17.10;15.50;;;;;;;-148.33;100.00;56587.81;5049214;28;20117;-57
2022/04/22 08:05:07;;;;;;;16.17;14.77;;;;;;;-148.33;100.00;56587.81;5049524;28;20112;-58
2022/04/22 08:07:32;;;;;;;15.82;14.52;;;;;;;-148.33;100.00;56587.81;5048394;28;20037;-56
2022/04/22 08:09:57;;;;;;;83.80;25.63;;;;;;;-148.33;100.00;56587.81;5046739;28;20111;-59
2022/04/22 08:12:23;;;;;;;27.33;16.55;;;;;;;-148.33;100.00;56587.81;5041069;28;20036;-56
2022/04/22 08:14:48;;;;;;;15.82;14.48;;;;;;;-148.33;100.00;56587.81;5048147;28;20063;-58
2022/04/22 08:17:15;;;;;;;16.38;14.90;;;;;;;-148.33;100.00;56587.81;5042457;28;20036;-58
2022/04/22 08:19:41;;;;;;;17.45;15.75;;;;;;;-148.33;100.00;56587.81;5048473;28;20033;-58
2022/04/22 08:22:06;;;;;;;15.88;14.57;;;;;;;-148.33;100.00;56587.81;5048898;28;20100;-59
2022/04/22 08:24:31;;;;;;;16.88;15.32;;;;;;;-148.33;100.00;56587.81;5048843;28;20036;-58
2022/04/22 08:26:58;;;;;;;17.50;16.00;;;;;;;-148.33;100.00;56587.81;5048646;28;20043;-58
2022/04/22 08:29:23;;;;;;;17.00;15.50;;;;;;;-148.33;100.00;56587.81;5048814;28;20029;-58
2022/04/22 08:31:51;;;;;;;17.67;15.98;;;;;;;-148.33;100.00;56587.81;5047909;28;20032;-59
2022/04/22 08:34:16;;;;;;;16.00;14.60;;;;;;;-148.33;100.00;56587.81;5048384;28;20448;-58
2022/04/22 08:36:43;;;;;;;16.95;15.40;;;;;;;-148.33;100.00;56587.81;5048933;28;20041;-58
2022/04/22 08:39:08;;;;;;;18.33;16.58;;;;;;;-148.33;100.00;56587.81;5048161;28;20031;-56
2022/04/22 08:41:35;;;;;;;16.90;15.45;;;;;;;-148.33;100.00;56587.81;5048396;28;20104;-58
2022/04/22 08:44:01;;;;;;;17.88;16.20;;;;;;;-148.33;100.00;56587.81;5048036;28;20052;-59
2022/04/22 08:51:58;;;;;;;15.93;14.48;;;;;;;-148.33;100.00;56587.81;5047842;28;20067;-57
2022/04/22 08:54:26;;;;;;;17.42;15.77;;;;;;;-148.33;100.00;56587.81;5036290;28;20018;-58
2022/04/22 08:56:52;;;;;;;16.17;14.68;;;;;;;-148.33;100.00;56587.81;5047413;28;20036;-59
2022/04/22 08:59:18;;;;;;;42.42;21.65;;;;;;;-148.33;100.00;56587.81;5049543;28;20033;-60
2022/04/22 09:01:43;;;;;;;108.40;30.58;;;;;;;-148.33;100.00;56587.81;5049236;28;20032;-59
2022/04/22 09:04:08;;;;;;;20.17;16.08;;;;;;;-148.33;100.00;56587.81;5046390;28;20040;-59
2022/04/22 09:06:34;;;;;;;19.05;15.60;;;;;;;-148.33;100.00;56587.81;5048295;28;20029;-59
2022/04/22 09:08:59;;;;;;;16.63;15.02;;;;;;;-148.33;100.00;56587.81;5047694;28;20064;-60
2022/04/22 09:11:25;;;;;;;17.13;15.45;;;;;;;-148.33;100.00;56587.81;5048325;28;20033;-59
2022/04/22 09:13:51;;;;;;;14.82;13.30;;;;;;;-148.33;100.00;56587.81;5049095;28;20228;-58
2022/04/22 09:16:20;;;;;;;15.23;13.73;;;;;;;-148.33;100.00;56587.81;5047698;28;20069;-59
2022/04/22 09:18:46;;;;;;;39.72;18.30;;;;;;;-148.33;100.00;56587.81;5049525;28;20033;-59
2022/04/22 09:21:16;;;;;;;33.80;16.42;;;;;;;-148.33;100.00;56587.81;5049177;28;20037;-60
2022/04/22 09:23:41;;;;;;;15.00;13.63;;;;;;;-148.33;100.00;56587.81;5049099;28;20025;-58
2022/04/22 09:26:22;;;;;;;13.82;12.52;;;;;;;-148.33;100.00;56587.81;5049535;28;20085;-58
2022/04/22 09:28:57;;;;;;;14.52;13.32;;;;;;;-148.33;100.00;56587.81;5048552;28;20116;-55
2022/04/22 09:31:25;;;;;;;13.38;12.02;;;;;;;-148.33;100.00;56587.81;5044725;28;20155;-57
2022/04/22 09:33:50;;;;;;;14.77;13.30;;;;;;;-148.33;100.00;56587.81;5046188;28;20637;-56
2022/04/22 09:45:08;;;;;;;13.10;11.80;;;;;;;-148.33;100.00;56587.81;5046643;28;20032;-59
2022/04/22 09:47:35;;;;;;;13.40;12.20;;;;;;;-148.33;100.00;56587.81;5039632;28;20087;-59
2022/04/22 09:50:08;;;;;;;12.43;11.43;;;;;;;-148.33;100.00;56587.81;5046252;28;20037;-56
2022/04/22 09:52:36;;;;;;;11.80;10.70;;;;;;;-148.33;100.00;56587.81;5031283;28;20017;-59
2022/04/22 09:55:09;;;;;;;11.70;10.60;;;;;;;-148.33;100.00;56587.81;5037276;28;20035;-59
2022/04/22 09:57:58;;;;;;;10.73;9.82;;;;;;;-148.33;100.00;56587.81;5036532;28;20021;-58
2022/04/22 10:00:25;;;;;;;11.05;10.13;;;;;;;-148.33;100.00;56587.81;5035216;28;20035;-58
2022/04/22 10:02:52;;;;;;;10.98;9.93;;;;;;;-148.33;100.00;56587.81;5046298;28;20179;-57
2022/04/22 10:05:22;;;;;;;11.07;9.98;;;;;;;-148.33;100.00;56587.81;5046559;28;20111;-58
2022/04/22 10:07:51;;;;;;;11.40;10.40;;;;;;;-148.33;100.00;56587.81;5049175;28;20418;-57
2022/04/22 10:10:19;;;;;;;11.30;10.40;;;;;;;-148.33;100.00;56587.81;5047575;28;20048;-58
2022/04/22 10:12:48;;;;;;;11.75;9.57;;;;;;;-148.33;100.00;56587.81;5045366;28;20071;-59
2022/04/22 10:15:17;;;;;;;11.25;10.25;;;;;;;-148.33;100.00;56587.81;5050784;28;20052;-58
2022/04/22 10:17:44;;;;;;;12.55;11.30;;;;;;;-148.33;100.00;56587.81;5051260;28;20103;-59
2022/04/22 10:20:10;;;;;;;11.52;10.50;;;;;;;-148.33;100.00;56587.81;5049028;28;20508;-58
2022/04/22 10:22:36;;;;;;;12.57;11.43;;;;;;;-148.33;100.00;56587.81;5050565;28;20024;-57
2022/04/22 10:25:07;;;;;;;11.65;10.75;;;;;;;-148.33;100.00;56587.81;5049257;28;20071;-57
2022/04/22 10:27:33;;;;;;;;;;;;;;;-148.33;100.00;56587.81;5051097;28;20039;-58
2022/04/22 10:29:59;;;;;;;13.25;12.05;;;;;;;-148.33;100.00;56587.81;5051073;28;19909;-59
2022/04/22 10:32:27;;;;;;;13.02;12.02;;;;;;;-148.33;100.00;56587.81;5050025;28;20028;-59
2022/04/22 10:35:00;;;;;;;13.40;12.20;;;;;;;-148.33;100.00;56587.81;5050284;28;20116;-58
2022/04/22 10:37:31;;;;;;;12.80;11.65;;;;;;;-148.33;100.00;56587.81;5051007;28;20027;-58
2022/04/22 10:39:57;;;;;;;11.82;10.75;;;;;;;-148.33;100.00;56587.81;5050701;28;20445;-57
2022/04/22 10:42:30;;;;;;;13.18;11.52;;;;;;;-148.33;100.00;56587.81;5050619;28;20029;-58
2022/04/22 10:47:46;;;;;;;12.70;11.48;;;;;;;-148.33;100.00;56587.81;5049270;28;20031;-57
2022/04/22 10:50:31;;;;;;;12.30;11.10;;;;;;;-148.33;100.00;56587.81;5048896;28;20036;-57
2022/04/22 10:53:09;;;;;;;12.85;11.45;;;;;;;-148.33;100.00;56587.81;5049014;28;20025;-59
2022/04/22 10:55:39;;;;;;;13.40;12.25;;;;;;;-148.33;100.00;56587.81;5048047;28;20680;-59
2022/04/22 10:58:14;;;;;;;12.97;11.67;;;;;;;-148.33;100.00;56587.81;5048830;28;20319;-58
2022/04/22 11:00:42;;;;;;;12.55;11.35;;;;;;;-148.33;100.00;56587.81;5047179;28;20028;-58
2022/04/22 11:03:19;;;;;;;11.98;11.00;;;;;;;-148.33;100.00;56587.81;5049352;28;20082;-59
2022/04/22 11:05:49;;;;;;;12.02;11.02;;;;;;;-148.33;100.00;56587.81;5049281;28;20112;-58
2022/04/22 11:08:19;;;;;;;12.02;10.75;;;;;;;-148.33;100.00;56587.81;5049117;28;20074;-57
2022/04/22 11:10:54;;;;;;;12.65;11.55;;;;;;;-148.33;100.00;56587.81;5048865;28;20021;-57
2022/04/22 11:13:50;;;;;;;12.93;11.93;;;;;;;-148.33;100.00;56587.81;5033256;28;20040;-59
2022/04/22 11:16:30;;;;;;;12.35;11.25;;;;;;;-148.33;100.00;56587.81;5048934;28;20056;-59
2022/04/22 11:19:17;;;;;;;13.93;12.60;;;;;;;-148.33;100.00;56587.81;5048484;28;20032;-59
2022/04/22 11:21:44;;;;;;;13.00;11.80;;;;;;;-148.33;100.00;56587.81;5044781;28;20028;-59
2022/04/22 11:24:15;;;;;;;13.98;12.57;;;;;;;-148.33;100.00;56587.81;5046216;28;20063;-58
2022/04/22 11:26:41;;;;;;;;;;;;;;;-148.33;100.00;56587.81;5044306;28;20049;-58
2022/04/22 11:29:08;;;;;;;12.52;11.48;;;;;;;-148.33;100.00;56587.81;5039348;28;19955;-59
2022/04/22 11:31:35;;;;;;;13.18;12.07;;;;;;;-148.33;100.00;56587.81;5038030;28;20583;-58
2022/04/22 11:34:10;;;;;;;12.85;11.43;;;;;;;-148.33;100.00;56587.81;5035422;28;20115;-58
2022/04/22 11:36:48;;;;;;;13.05;11.68;;;;;;;-148.33;100.00;56587.81;5034085;28;20541;-59
2022/04/22 11:39:23;;;;;;;25.13;14.23;;;;;;;-148.33;100.00;56587.81;5047664;28;20115;-58
2022/04/22 11:41:59;;;;;;;13.18;11.98;;;;;;;-148.33;100.00;56587.81;5030611;28;20022;-58
2022/04/22 11:44:25;;;;;;;24.70;14.60;;;;;;;-148.33;100.00;56587.81;5038886;28;20033;-58
2022/04/22 11:46:54;;;;;;;13.02;11.93;;;;;;;-148.33;100.00;56587.81;5035241;28;20025;-58
2022/04/22 11:49:20;;;;;;;13.00;11.70;;;;;;;-148.33;100.00;56587.81;5042888;28;20071;-58
2022/04/22 11:51:51;;;;;;;18.00;12.25;;;;;;;-148.33;100.00;56587.81;5041630;28;20021;-59
2022/04/22 11:54:24;;;;;;;13.90;12.70;;;;;;;-148.33;100.00;56587.81;5034271;28;20082;-59